Pazifik — ZDKS7 — position and weather

sailwx.info

Track history (hours):
 
Tides and Currents Weather Stations Pressure Air Temp Water Temp Dewpoint Dewpoint Depression Visibility Wind Speed Wind Dir Waves Ship Positions

Pazifik

Last reported at 2015-Mar-04 18:33 UTC. Time now 2015-Mar-04 18:51 UTC.
Position N 53°48' W 011°29'.

Length 205 m; draft 8.6 m.

Type: Ship (hazmat cat A). MMSI: 236111796.

Date/timePositionNaut miles runAvg speedWind from/ knotsBaromVisibWave heightAir tempDewpointWater temp
2015-Mar-04 18:33N 53°48' W 011°29'10815.0
2015-Mar-04 11:21N 52°00' W 011°30'  
2015-Mar-02 01:28N 39°09' W 009°57'1415.1
2015-Mar-02 00:33N 38°55' W 009°58'1515.1
2015-Mar-01 23:33N 38°40' W 009°57'1615.3
2015-Mar-01 22:33N 38°25' W 009°52'1815.6
2015-Mar-01 21:22N 38°07' W 009°48'1715.5
2015-Mar-01 20:15N 37°50' W 009°43'2915.2
2015-Mar-01 18:22N 37°22' W 009°34'1915.0
2015-Mar-01 17:04N 37°03' W 009°29'5313.4
2015-Mar-01 13:09N 36°33' W 008°35'14915.2
2015-Mar-01 03:23N 35°58' W 005°36'1112.8
2015-Mar-01 02:33N 36°02' W 005°24'6 5.3
2015-Mar-01 01:30N 36°08' W 005°22'0 0.1
2015-Mar-01 00:24N 36°08' W 005°22'0 0.0
2015-Feb-28 23:33N 36°08' W 005°22'0 0.0
2015-Feb-28 22:33N 36°08' W 005°22'0 0.0
2015-Feb-28 21:33N 36°08' W 005°22'0 0.1
2015-Feb-28 20:33N 36°08' W 005°22'0 0.0
2015-Feb-28 19:33N 36°08' W 005°22'0 0.1
2015-Feb-28 18:33N 36°08' W 005°22'0 0.0
2015-Feb-28 17:30N 36°08' W 005°22'0 0.1
2015-Feb-28 16:33N 36°08' W 005°22'0 0.0
2015-Feb-28 15:33N 36°08' W 005°22'0 0.0
2015-Feb-28 14:30N 36°08' W 005°22'0 0.1
2015-Feb-28 13:33N 36°08' W 005°22'0 0.0
2015-Feb-28 12:33N 36°08' W 005°22'0 0.1
2015-Feb-28 11:33N 36°08' W 005°22'0 0.0
2015-Feb-28 10:30N 36°08' W 005°22'0 0.1
2015-Feb-28 09:33N 36°08' W 005°22'0 0.1
2015-Feb-28 08:33N 36°08' W 005°22'0 0.1
2015-Feb-28 07:33N 36°08' W 005°22'0 0.1
2015-Feb-28 06:30N 36°08' W 005°22'0 0.1
2015-Feb-28 05:33N 36°08' W 005°22'0 0.0
2015-Feb-28 04:24N 36°08' W 005°22'0 0.1
2015-Feb-28 03:33N 36°08' W 005°22'2 2.2
2015-Feb-28 02:33N 36°06' W 005°22'12 1.5
2015-Feb-27 18:18N 36°13' W 005°10'1 1.3
2015-Feb-27 17:29N 36°12' W 005°10'1 1.2
2015-Feb-27 16:33N 36°11' W 005°11'5 5.5
2015-Feb-27 15:34N 36°06' W 005°12'  
2015-Feb-24 17:12N 37°44' E 011°50'10312.0
2015-Feb-24 08:33N 36°52' E 013°42'1515.2
2015-Feb-24 07:34N 36°45' E 013°58'1615.5
2015-Feb-24 06:33N 36°36' E 014°15'  
Track history (hours):
 
Tides and Currents Weather Stations Pressure Air Temp Water Temp Dewpoint Dewpoint Depression Visibility Wind Speed Wind Dir Waves Ship Positions

Pazifik

Last reported at 2015-Mar-04 18:33 UTC. Time now 2015-Mar-04 18:51 UTC.
Position N 53°48' W 011°29'.

Length 205 m; draft 8.6 m.

Type: Ship (hazmat cat A). MMSI: 236111796.

Date/timePositionNaut miles runAvg speedWind from/ knotsBaromVisibWave heightAir tempDewpointWater temp
2015-Mar-04 18:33N 53°48' W 011°29'10815.0
2015-Mar-04 11:21N 52°00' W 011°30'  
2015-Mar-02 01:28N 39°09' W 009°57'1415.1
2015-Mar-02 00:33N 38°55' W 009°58'1515.1
2015-Mar-01 23:33N 38°40' W 009°57'1615.3
2015-Mar-01 22:33N 38°25' W 009°52'1815.6
2015-Mar-01 21:22N 38°07' W 009°48'1715.5
2015-Mar-01 20:15N 37°50' W 009°43'2915.2
2015-Mar-01 18:22N 37°22' W 009°34'1915.0
2015-Mar-01 17:04N 37°03' W 009°29'5313.4
2015-Mar-01 13:09N 36°33' W 008°35'14915.2
2015-Mar-01 03:23N 35°58' W 005°36'1112.8
2015-Mar-01 02:33N 36°02' W 005°24'6 5.3
2015-Mar-01 01:30N 36°08' W 005°22'0 0.1
2015-Mar-01 00:24N 36°08' W 005°22'0 0.0
2015-Feb-28 23:33N 36°08' W 005°22'0 0.0
2015-Feb-28 22:33N 36°08' W 005°22'0 0.0
2015-Feb-28 21:33N 36°08' W 005°22'0 0.1
2015-Feb-28 20:33N 36°08' W 005°22'0 0.0
2015-Feb-28 19:33N 36°08' W 005°22'0 0.1
2015-Feb-28 18:33N 36°08' W 005°22'0 0.0
2015-Feb-28 17:30N 36°08' W 005°22'0 0.1
2015-Feb-28 16:33N 36°08' W 005°22'0 0.0
2015-Feb-28 15:33N 36°08' W 005°22'0 0.0
2015-Feb-28 14:30N 36°08' W 005°22'0 0.1
2015-Feb-28 13:33N 36°08' W 005°22'0 0.0
2015-Feb-28 12:33N 36°08' W 005°22'0 0.1
2015-Feb-28 11:33N 36°08' W 005°22'0 0.0
2015-Feb-28 10:30N 36°08' W 005°22'0 0.1
2015-Feb-28 09:33N 36°08' W 005°22'0 0.1
2015-Feb-28 08:33N 36°08' W 005°22'0 0.1
2015-Feb-28 07:33N 36°08' W 005°22'0 0.1
2015-Feb-28 06:30N 36°08' W 005°22'0 0.1
2015-Feb-28 05:33N 36°08' W 005°22'0 0.0
2015-Feb-28 04:24N 36°08' W 005°22'0 0.1
2015-Feb-28 03:33N 36°08' W 005°22'2 2.2
2015-Feb-28 02:33N 36°06' W 005°22'12 1.5
2015-Feb-27 18:18N 36°13' W 005°10'1 1.3
2015-Feb-27 17:29N 36°12' W 005°10'1 1.2
2015-Feb-27 16:33N 36°11' W 005°11'5 5.5
2015-Feb-27 15:34N 36°06' W 005°12'  
2015-Feb-24 17:12N 37°44' E 011°50'10312.0
2015-Feb-24 08:33N 36°52' E 013°42'1515.2
2015-Feb-24 07:34N 36°45' E 013°58'1615.5
2015-Feb-24 06:33N 36°36' E 014°15'  

Dump ship's entire track history